MUHG/HOG METAR and TAF weather

Enter ICAO airport designator
Station Type Date Time Source
MUHG METAR 2022/12/10 00:50 UTC NOAA

MUHG 100050Z 04006KT 9999 FEW030 21/18 Q1016


Station Type Date Time Source
MUHG Decoded METAR 2022/12/10 00:50 UTC NOAA

Holguin Civ / Mil , Cuba (MUHG) 20-47N 076-19W
Dec 09, 2022 - 07:50 PM EST / 2022.12.10 0050 UTC
Wind: from the NE (040 degrees) at 7 MPH (6 KT):0
Visibility: greater than 7 mile(s):0
Sky conditions: mostly clear
Temperature: 69 F (21 C)
Dew Point: 64 F (18 C)
Relative Humidity: 82%
Pressure (altimeter): 30.00 in. Hg (1016 hPa)
ob: MUHG 100050Z 04006KT 9999 FEW030 21/18 Q1016
cycle: 1

Station Type Date Time Source
MUHG TAF 2022/12/09 18:03 UTC NOAA

TAF MUHG 091700Z 0918/1018 06009KT 9000 SCT030
BECMG 1001/1003 VRB03KT FEW020
TEMPO 1008/1013 5000 BR
BECMG 1014/1015 04009KT SCT020

Example: see airport list